If you wish to contribute or participate in the discussions about articles you are invited to join SKYbrary as a registered user

 Actions

Iwami Airport

From SKYbrary Wiki

RJOW
Airport
ICAO: RJOW – IATA: IWJ
Summary
Name Iwami Airport
Region Asia and Pacific
Territory Japan JP.gif
Location Masuda, Shimane Prefecture
Serving Iwami
Elevation 53.95 m
177 ft53.95 m
Coordinates 34° 40' 42.36" N, 131° 47' 48.42" E
Runways
Designator Length Width Surface ROPS
11/29 2000 m6,561.68 ft
45 m147.638 ft
ASP yes/yes


METAR
Observation RJOW 190800Z 05007KT 340V090 9999 FEW010 BKN015 BKN020 13/10 Q1015
Station Iwami Airport
Date/Time 19 April 2019 08:00:00
Wind direction 50°
Wind speed 07 kts
Lowest cloud amount few clouds
Temperature 13°C
Dew point 10°C
Humidity 82%
QNH 1015 hPa
Weather condition n/a

Airport located 2.8nm5,185.6 m
5.186 km
17,013.123 ft
southwest of Masuda, Shimane Prefecture, Japan. It is also known as Hagi-Iwami Airport due to its proximity to the city of Hagi in Yamaguchi Prefecture.

Climatology

Humid Sub-tropical climate (Köppen climate classification Cfa)

Maps

Terrain

Loading map...

Airport Layout

Loading map...


Accidents & Serious Incidents at or in vicinity of RJOW

None on SKYbrary